sensor_id;sensor_type;location;lat;lon;timestamp;P1;durP1;ratioP1;P2;durP2;ratioP2
30472;SDS011;17263;48.160;11.452;2024-01-30T00:00:05;15.57;;;10.90;;
30472;SDS011;17263;48.160;11.452;2024-01-30T00:02:31;14.73;;;10.40;;
30472;SDS011;17263;48.160;11.452;2024-01-30T00:04:57;17.63;;;10.93;;
30472;SDS011;17263;48.160;11.452;2024-01-30T00:07:24;14.97;;;10.97;;
30472;SDS011;17263;48.160;11.452;2024-01-30T00:09:50;14.40;;;10.83;;
30472;SDS011;17263;48.160;11.452;2024-01-30T00:12:16;16.47;;;10.70;;
30472;SDS011;17263;48.160;11.452;2024-01-30T00:14:42;17.13;;;10.93;;
30472;SDS011;17263;48.160;11.452;2024-01-30T00:17:11;16.27;;;10.47;;
30472;SDS011;17263;48.160;11.452;2024-01-30T00:19:37;15.60;;;11.50;;
30472;SDS011;17263;48.160;11.452;2024-01-30T00:22:03;18.83;;;11.00;;
30472;SDS011;17263;48.160;11.452;2024-01-30T00:24:29;17.07;;;10.87;;
30472;SDS011;17263;48.160;11.452;2024-01-30T00:26:55;15.23;;;10.63;;
30472;SDS011;17263;48.160;11.452;2024-01-30T00:29:21;16.70;;;10.47;;
30472;SDS011;17263;48.160;11.452;2024-01-30T00:31:48;14.43;;;10.97;;
30472;SDS011;17263;48.160;11.452;2024-01-30T00:34:14;16.43;;;10.77;;
30472;SDS011;17263;48.160;11.452;2024-01-30T00:36:40;21.00;;;10.70;;
30472;SDS011;17263;48.160;11.452;2024-01-30T00:39:06;18.27;;;10.90;;
30472;SDS011;17263;48.160;11.452;2024-01-30T00:41:34;14.63;;;9.63;;
30472;SDS011;17263;48.160;11.452;2024-01-30T00:44:00;14.93;;;10.27;;
30472;SDS011;17263;48.160;11.452;2024-01-30T00:46:26;15.60;;;10.40;;
30472;SDS011;17263;48.160;11.452;2024-01-30T00:48:52;20.87;;;10.27;;
30472;SDS011;17263;48.160;11.452;2024-01-30T00:51:18;16.63;;;10.10;;
30472;SDS011;17263;48.160;11.452;2024-01-30T00:53:44;14.17;;;8.90;;
30472;SDS011;17263;48.160;11.452;2024-01-30T00:56:11;13.83;;;9.47;;
30472;SDS011;17263;48.160;11.452;2024-01-30T00:58:37;15.57;;;8.83;;
30472;SDS011;17263;48.160;11.452;2024-01-30T01:01:03;13.77;;;8.93;;
30472;SDS011;17263;48.160;11.452;2024-01-30T01:03:29;19.20;;;9.80;;
30472;SDS011;17263;48.160;11.452;2024-01-30T01:05:55;16.13;;;9.87;;
30472;SDS011;17263;48.160;11.452;2024-01-30T01:08:21;18.33;;;10.37;;
30472;SDS011;17263;48.160;11.452;2024-01-30T01:10:47;19.23;;;11.10;;
30472;SDS011;17263;48.160;11.452;2024-01-30T01:13:13;20.27;;;11.33;;
30472;SDS011;17263;48.160;11.452;2024-01-30T01:15:39;19.87;;;10.57;;
30472;SDS011;17263;48.160;11.452;2024-01-30T01:18:05;23.00;;;11.53;;
30472;SDS011;17263;48.160;11.452;2024-01-30T01:20:31;20.37;;;11.70;;
30472;SDS011;17263;48.160;11.452;2024-01-30T01:22:57;21.87;;;10.97;;
30472;SDS011;17263;48.160;11.452;2024-01-30T01:25:23;18.60;;;9.20;;
30472;SDS011;17263;48.160;11.452;2024-01-30T01:27:50;12.60;;;8.20;;
30472;SDS011;17263;48.160;11.452;2024-01-30T01:30:18;14.20;;;8.83;;
30472;SDS011;17263;48.160;11.452;2024-01-30T01:32:48;11.43;;;7.57;;
30472;SDS011;17263;48.160;11.452;2024-01-30T01:35:23;11.87;;;7.50;;
30472;SDS011;17263;48.160;11.452;2024-01-30T01:37:50;11.77;;;7.23;;
30472;SDS011;17263;48.160;11.452;2024-01-30T01:40:25;11.80;;;6.83;;
30472;SDS011;17263;48.160;11.452;2024-01-30T01:42:51;9.17;;;6.80;;
30472;SDS011;17263;48.160;11.452;2024-01-30T01:45:18;9.37;;;7.03;;
30472;SDS011;17263;48.160;11.452;2024-01-30T01:47:46;9.90;;;6.30;;
30472;SDS011;17263;48.160;11.452;2024-01-30T01:50:16;8.67;;;6.57;;
30472;SDS011;17263;48.160;11.452;2024-01-30T01:52:48;9.77;;;6.03;;
30472;SDS011;17263;48.160;11.452;2024-01-30T01:55:16;9.87;;;6.93;;
30472;SDS011;17263;48.160;11.452;2024-01-30T01:57:44;9.10;;;6.60;;
30472;SDS011;17263;48.160;11.452;2024-01-30T02:00:10;7.93;;;5.97;;
30472;SDS011;17263;48.160;11.452;2024-01-30T02:02:37;10.77;;;6.63;;
30472;SDS011;17263;48.160;11.452;2024-01-30T02:05:05;8.63;;;5.90;;
30472;SDS011;17263;48.160;11.452;2024-01-30T02:07:31;10.73;;;6.43;;
30472;SDS011;17263;48.160;11.452;2024-01-30T02:09:57;8.53;;;6.40;;
30472;SDS011;17263;48.160;11.452;2024-01-30T02:12:23;13.00;;;6.20;;
30472;SDS011;17263;48.160;11.452;2024-01-30T02:14:49;11.23;;;6.23;;
30472;SDS011;17263;48.160;11.452;2024-01-30T02:17:15;9.97;;;5.80;;
30472;SDS011;17263;48.160;11.452;2024-01-30T02:19:42;9.53;;;6.03;;
30472;SDS011;17263;48.160;11.452;2024-01-30T02:22:08;10.33;;;5.73;;
30472;SDS011;17263;48.160;11.452;2024-01-30T02:24:35;8.40;;;5.63;;
30472;SDS011;17263;48.160;11.452;2024-01-30T02:27:01;7.20;;;5.43;;
30472;SDS011;17263;48.160;11.452;2024-01-30T02:29:27;8.50;;;5.67;;
30472;SDS011;17263;48.160;11.452;2024-01-30T02:31:53;10.90;;;6.17;;
30472;SDS011;17263;48.160;11.452;2024-01-30T02:34:19;7.67;;;5.90;;
30472;SDS011;17263;48.160;11.452;2024-01-30T02:36:45;5.47;;;4.83;;
30472;SDS011;17263;48.160;11.452;2024-01-30T02:39:11;8.40;;;5.63;;
30472;SDS011;17263;48.160;11.452;2024-01-30T02:41:37;6.97;;;5.70;;
30472;SDS011;17263;48.160;11.452;2024-01-30T02:44:03;6.93;;;5.20;;
30472;SDS011;17263;48.160;11.452;2024-01-30T02:46:29;7.50;;;5.73;;
30472;SDS011;17263;48.160;11.452;2024-01-30T02:48:55;7.73;;;5.83;;
30472;SDS011;17263;48.160;11.452;2024-01-30T02:51:22;6.73;;;5.20;;
30472;SDS011;17263;48.160;11.452;2024-01-30T02:53:48;8.47;;;5.53;;
30472;SDS011;17263;48.160;11.452;2024-01-30T02:56:14;8.17;;;5.77;;
30472;SDS011;17263;48.160;11.452;2024-01-30T02:58:40;8.97;;;5.47;;
30472;SDS011;17263;48.160;11.452;2024-01-30T03:01:06;6.87;;;5.30;;
30472;SDS011;17263;48.160;11.452;2024-01-30T03:03:33;8.70;;;5.53;;
30472;SDS011;17263;48.160;11.452;2024-01-30T03:06:01;11.67;;;5.73;;
30472;SDS011;17263;48.160;11.452;2024-01-30T03:08:27;8.70;;;5.53;;
30472;SDS011;17263;48.160;11.452;2024-01-30T03:10:53;7.03;;;4.97;;
30472;SDS011;17263;48.160;11.452;2024-01-30T03:13:20;7.60;;;5.53;;
30472;SDS011;17263;48.160;11.452;2024-01-30T03:15:46;8.23;;;4.80;;
30472;SDS011;17263;48.160;11.452;2024-01-30T03:18:12;6.53;;;4.87;;
30472;SDS011;17263;48.160;11.452;2024-01-30T03:20:38;8.53;;;5.07;;
30472;SDS011;17263;48.160;11.452;2024-01-30T03:23:04;7.63;;;5.00;;
30472;SDS011;17263;48.160;11.452;2024-01-30T03:25:31;8.20;;;5.70;;
30472;SDS011;17263;48.160;11.452;2024-01-30T03:27:57;7.00;;;5.37;;
30472;SDS011;17263;48.160;11.452;2024-01-30T03:30:23;5.47;;;4.40;;
30472;SDS011;17263;48.160;11.452;2024-01-30T03:32:49;7.57;;;5.10;;
30472;SDS011;17263;48.160;11.452;2024-01-30T03:35:15;6.50;;;5.07;;
30472;SDS011;17263;48.160;11.452;2024-01-30T03:37:41;6.13;;;5.10;;
30472;SDS011;17263;48.160;11.452;2024-01-30T03:40:07;6.93;;;5.00;;
30472;SDS011;17263;48.160;11.452;2024-01-30T03:42:34;5.17;;;4.67;;
30472;SDS011;17263;48.160;11.452;2024-01-30T03:45:00;6.27;;;4.53;;
30472;SDS011;17263;48.160;11.452;2024-01-30T03:47:26;9.30;;;4.93;;
30472;SDS011;17263;48.160;11.452;2024-01-30T03:49:52;6.77;;;4.83;;
30472;SDS011;17263;48.160;11.452;2024-01-30T03:52:18;9.50;;;5.20;;
30472;SDS011;17263;48.160;11.452;2024-01-30T03:54:45;5.57;;;4.53;;
30472;SDS011;17263;48.160;11.452;2024-01-30T03:57:11;5.93;;;4.70;;
30472;SDS011;17263;48.160;11.452;2024-01-30T03:59:37;6.50;;;4.97;;
30472;SDS011;17263;48.160;11.452;2024-01-30T04:02:03;6.63;;;4.93;;
30472;SDS011;17263;48.160;11.452;2024-01-30T04:04:29;6.27;;;4.60;;
30472;SDS011;17263;48.160;11.452;2024-01-30T04:06:55;6.53;;;5.13;;
30472;SDS011;17263;48.160;11.452;2024-01-30T04:09:21;5.87;;;4.80;;
30472;SDS011;17263;48.160;11.452;2024-01-30T04:11:47;5.70;;;4.63;;
30472;SDS011;17263;48.160;11.452;2024-01-30T04:14:13;6.27;;;4.80;;
30472;SDS011;17263;48.160;11.452;2024-01-30T04:16:39;6.23;;;4.37;;
30472;SDS011;17263;48.160;11.452;2024-01-30T04:19:05;6.57;;;4.60;;
30472;SDS011;17263;48.160;11.452;2024-01-30T04:21:31;10.70;;;5.07;;
30472;SDS011;17263;48.160;11.452;2024-01-30T04:23:57;6.47;;;4.73;;
30472;SDS011;17263;48.160;11.452;2024-01-30T04:26:23;6.20;;;4.20;;
30472;SDS011;17263;48.160;11.452;2024-01-30T04:28:49;5.80;;;4.80;;
30472;SDS011;17263;48.160;11.452;2024-01-30T04:31:15;5.47;;;4.40;;
30472;SDS011;17263;48.160;11.452;2024-01-30T04:33:41;6.07;;;4.43;;
30472;SDS011;17263;48.160;11.452;2024-01-30T04:36:08;6.47;;;5.00;;
30472;SDS011;17263;48.160;11.452;2024-01-30T04:38:40;6.43;;;4.80;;
30472;SDS011;17263;48.160;11.452;2024-01-30T04:41:07;5.63;;;4.80;;
30472;SDS011;17263;48.160;11.452;2024-01-30T04:43:33;6.60;;;4.80;;
30472;SDS011;17263;48.160;11.452;2024-01-30T04:45:59;6.17;;;4.57;;
30472;SDS011;17263;48.160;11.452;2024-01-30T04:48:25;8.33;;;5.27;;
30472;SDS011;17263;48.160;11.452;2024-01-30T04:50:51;7.83;;;5.43;;
30472;SDS011;17263;48.160;11.452;2024-01-30T04:53:17;6.73;;;5.43;;
30472;SDS011;17263;48.160;11.452;2024-01-30T04:55:43;5.40;;;4.80;;
30472;SDS011;17263;48.160;11.452;2024-01-30T04:58:09;6.77;;;5.17;;
30472;SDS011;17263;48.160;11.452;2024-01-30T05:00:35;7.30;;;4.97;;
30472;SDS011;17263;48.160;11.452;2024-01-30T05:03:01;9.77;;;5.13;;
30472;SDS011;17263;48.160;11.452;2024-01-30T05:05:27;9.00;;;5.50;;
30472;SDS011;17263;48.160;11.452;2024-01-30T05:07:53;8.07;;;4.70;;
30472;SDS011;17263;48.160;11.452;2024-01-30T05:10:19;6.87;;;4.83;;
30472;SDS011;17263;48.160;11.452;2024-01-30T05:12:45;7.00;;;5.13;;
30472;SDS011;17263;48.160;11.452;2024-01-30T05:15:11;6.67;;;5.23;;
30472;SDS011;17263;48.160;11.452;2024-01-30T05:17:37;6.40;;;5.00;;
30472;SDS011;17263;48.160;11.452;2024-01-30T05:20:03;6.10;;;4.63;;
30472;SDS011;17263;48.160;11.452;2024-01-30T05:22:30;8.93;;;5.00;;
30472;SDS011;17263;48.160;11.452;2024-01-30T05:24:56;6.50;;;5.00;;
30472;SDS011;17263;48.160;11.452;2024-01-30T05:27:22;7.37;;;5.17;;
30472;SDS011;17263;48.160;11.452;2024-01-30T05:29:48;7.30;;;5.07;;
30472;SDS011;17263;48.160;11.452;2024-01-30T05:32:15;7.70;;;4.97;;
30472;SDS011;17263;48.160;11.452;2024-01-30T05:34:41;6.10;;;4.83;;
30472;SDS011;17263;48.160;11.452;2024-01-30T05:37:07;7.27;;;4.23;;
30472;SDS011;17263;48.160;11.452;2024-01-30T05:39:33;7.23;;;4.83;;
30472;SDS011;17263;48.160;11.452;2024-01-30T05:41:59;8.43;;;5.33;;
30472;SDS011;17263;48.160;11.452;2024-01-30T05:44:25;6.37;;;4.23;;
30472;SDS011;17263;48.160;11.452;2024-01-30T05:46:51;10.77;;;5.70;;
30472;SDS011;17263;48.160;11.452;2024-01-30T05:49:17;7.13;;;5.40;;
30472;SDS011;17263;48.160;11.452;2024-01-30T05:51:43;9.00;;;5.97;;
30472;SDS011;17263;48.160;11.452;2024-01-30T05:54:09;8.50;;;5.50;;
30472;SDS011;17263;48.160;11.452;2024-01-30T05:56:35;7.83;;;4.83;;
30472;SDS011;17263;48.160;11.452;2024-01-30T05:59:01;7.07;;;4.57;;
30472;SDS011;17263;48.160;11.452;2024-01-30T06:01:28;8.30;;;5.30;;
30472;SDS011;17263;48.160;11.452;2024-01-30T06:03:54;6.33;;;4.67;;
30472;SDS011;17263;48.160;11.452;2024-01-30T06:06:20;6.53;;;5.13;;
30472;SDS011;17263;48.160;11.452;2024-01-30T06:08:46;6.60;;;4.80;;
30472;SDS011;17263;48.160;11.452;2024-01-30T06:11:12;10.20;;;5.03;;
30472;SDS011;17263;48.160;11.452;2024-01-30T06:13:38;7.93;;;4.77;;
30472;SDS011;17263;48.160;11.452;2024-01-30T06:16:05;7.17;;;5.33;;
30472;SDS011;17263;48.160;11.452;2024-01-30T06:18:35;7.23;;;4.90;;
30472;SDS011;17263;48.160;11.452;2024-01-30T06:21:01;9.10;;;4.53;;
30472;SDS011;17263;48.160;11.452;2024-01-30T06:23:27;7.63;;;4.57;;
30472;SDS011;17263;48.160;11.452;2024-01-30T06:25:53;10.23;;;5.30;;
30472;SDS011;17263;48.160;11.452;2024-01-30T06:28:19;7.50;;;4.80;;
30472;SDS011;17263;48.160;11.452;2024-01-30T06:30:45;9.50;;;5.07;;
30472;SDS011;17263;48.160;11.452;2024-01-30T06:33:11;8.53;;;5.10;;
30472;SDS011;17263;48.160;11.452;2024-01-30T06:35:38;7.20;;;5.03;;
30472;SDS011;17263;48.160;11.452;2024-01-30T06:38:06;13.13;;;5.53;;
30472;SDS011;17263;48.160;11.452;2024-01-30T06:40:32;5.43;;;4.50;;
30472;SDS011;17263;48.160;11.452;2024-01-30T06:42:58;9.60;;;5.37;;
30472;SDS011;17263;48.160;11.452;2024-01-30T06:45:24;6.07;;;4.40;;
30472;SDS011;17263;48.160;11.452;2024-01-30T06:47:50;8.30;;;5.10;;
30472;SDS011;17263;48.160;11.452;2024-01-30T06:50:16;10.33;;;5.07;;
30472;SDS011;17263;48.160;11.452;2024-01-30T06:52:42;8.80;;;5.43;;
30472;SDS011;17263;48.160;11.452;2024-01-30T06:55:08;6.80;;;4.80;;
30472;SDS011;17263;48.160;11.452;2024-01-30T06:57:34;11.97;;;6.03;;
30472;SDS011;17263;48.160;11.452;2024-01-30T07:00:00;9.47;;;5.57;;
30472;SDS011;17263;48.160;11.452;2024-01-30T07:02:26;8.80;;;5.10;;
30472;SDS011;17263;48.160;11.452;2024-01-30T07:04:52;7.07;;;5.00;;
30472;SDS011;17263;48.160;11.452;2024-01-30T07:07:18;10.60;;;5.40;;
30472;SDS011;17263;48.160;11.452;2024-01-30T07:09:44;7.00;;;5.07;;
30472;SDS011;17263;48.160;11.452;2024-01-30T07:12:10;8.17;;;5.57;;
30472;SDS011;17263;48.160;11.452;2024-01-30T07:14:36;11.07;;;5.57;;
30472;SDS011;17263;48.160;11.452;2024-01-30T07:17:02;8.80;;;4.87;;
30472;SDS011;17263;48.160;11.452;2024-01-30T07:19:28;7.90;;;4.97;;
30472;SDS011;17263;48.160;11.452;2024-01-30T07:21:54;8.03;;;4.50;;
30472;SDS011;17263;48.160;11.452;2024-01-30T07:24:20;9.17;;;5.20;;
30472;SDS011;17263;48.160;11.452;2024-01-30T07:26:46;7.40;;;5.27;;
30472;SDS011;17263;48.160;11.452;2024-01-30T07:29:12;11.17;;;5.67;;
30472;SDS011;17263;48.160;11.452;2024-01-30T07:31:38;10.63;;;6.07;;
30472;SDS011;17263;48.160;11.452;2024-01-30T07:34:05;19.57;;;7.53;;
30472;SDS011;17263;48.160;11.452;2024-01-30T07:36:31;16.13;;;7.73;;
30472;SDS011;17263;48.160;11.452;2024-01-30T07:38:57;13.63;;;7.33;;
30472;SDS011;17263;48.160;11.452;2024-01-30T07:41:23;19.10;;;7.73;;
30472;SDS011;17263;48.160;11.452;2024-01-30T07:43:50;18.13;;;8.03;;
30472;SDS011;17263;48.160;11.452;2024-01-30T07:46:17;17.90;;;8.73;;
30472;SDS011;17263;48.160;11.452;2024-01-30T07:48:43;12.53;;;7.93;;
30472;SDS011;17263;48.160;11.452;2024-01-30T07:51:09;13.17;;;7.10;;
30472;SDS011;17263;48.160;11.452;2024-01-30T07:53:35;20.93;;;7.23;;
30472;SDS011;17263;48.160;11.452;2024-01-30T07:56:01;16.70;;;7.77;;
30472;SDS011;17263;48.160;11.452;2024-01-30T07:58:28;12.20;;;6.83;;
30472;SDS011;17263;48.160;11.452;2024-01-30T08:00:54;11.17;;;6.30;;
30472;SDS011;17263;48.160;11.452;2024-01-30T08:03:22;12.97;;;6.30;;
30472;SDS011;17263;48.160;11.452;2024-01-30T08:05:48;9.63;;;5.63;;
30472;SDS011;17263;48.160;11.452;2024-01-30T08:08:14;10.53;;;5.73;;
30472;SDS011;17263;48.160;11.452;2024-01-30T08:10:43;7.63;;;5.50;;
30472;SDS011;17263;48.160;11.452;2024-01-30T08:13:09;8.57;;;5.40;;
30472;SDS011;17263;48.160;11.452;2024-01-30T08:15:35;8.27;;;5.40;;
30472;SDS011;17263;48.160;11.452;2024-01-30T08:18:01;8.37;;;6.27;;
30472;SDS011;17263;48.160;11.452;2024-01-30T08:20:27;7.23;;;5.27;;
30472;SDS011;17263;48.160;11.452;2024-01-30T08:22:53;7.27;;;5.37;;
30472;SDS011;17263;48.160;11.452;2024-01-30T08:25:19;7.03;;;4.90;;
30472;SDS011;17263;48.160;11.452;2024-01-30T08:27:45;9.10;;;4.90;;
30472;SDS011;17263;48.160;11.452;2024-01-30T08:30:11;6.90;;;5.00;;
30472;SDS011;17263;48.160;11.452;2024-01-30T08:32:37;9.63;;;5.70;;
30472;SDS011;17263;48.160;11.452;2024-01-30T08:35:03;13.77;;;5.93;;
30472;SDS011;17263;48.160;11.452;2024-01-30T08:37:29;6.30;;;5.00;;
30472;SDS011;17263;48.160;11.452;2024-01-30T08:39:55;9.60;;;6.53;;
30472;SDS011;17263;48.160;11.452;2024-01-30T08:42:22;12.40;;;6.67;;
30472;SDS011;17263;48.160;11.452;2024-01-30T08:44:48;9.37;;;6.07;;
30472;SDS011;17263;48.160;11.452;2024-01-30T08:47:16;9.37;;;6.00;;
30472;SDS011;17263;48.160;11.452;2024-01-30T08:49:44;11.03;;;6.03;;
30472;SDS011;17263;48.160;11.452;2024-01-30T08:52:10;8.97;;;5.83;;
30472;SDS011;17263;48.160;11.452;2024-01-30T08:54:36;10.97;;;6.27;;
30472;SDS011;17263;48.160;11.452;2024-01-30T08:57:02;7.73;;;5.37;;
30472;SDS011;17263;48.160;11.452;2024-01-30T08:59:29;8.03;;;5.67;;
30472;SDS011;17263;48.160;11.452;2024-01-30T09:01:56;8.67;;;5.53;;
30472;SDS011;17263;48.160;11.452;2024-01-30T09:04:24;8.87;;;5.53;;
30472;SDS011;17263;48.160;11.452;2024-01-30T09:06:50;9.30;;;5.67;;
30472;SDS011;17263;48.160;11.452;2024-01-30T09:09:16;7.17;;;5.27;;
30472;SDS011;17263;48.160;11.452;2024-01-30T09:11:43;10.37;;;6.30;;
30472;SDS011;17263;48.160;11.452;2024-01-30T09:14:09;10.63;;;6.80;;
30472;SDS011;17263;48.160;11.452;2024-01-30T09:16:35;12.43;;;7.33;;
30472;SDS011;17263;48.160;11.452;2024-01-30T09:19:01;9.63;;;6.00;;
30472;SDS011;17263;48.160;11.452;2024-01-30T09:21:27;8.87;;;6.60;;
30472;SDS011;17263;48.160;11.452;2024-01-30T09:24:01;8.23;;;5.53;;
30472;SDS011;17263;48.160;11.452;2024-01-30T09:26:31;9.63;;;6.43;;
30472;SDS011;17263;48.160;11.452;2024-01-30T09:28:57;10.37;;;6.30;;
30472;SDS011;17263;48.160;11.452;2024-01-30T09:31:23;8.87;;;5.73;;
30472;SDS011;17263;48.160;11.452;2024-01-30T09:33:49;18.10;;;6.27;;
30472;SDS011;17263;48.160;11.452;2024-01-30T09:36:16;9.67;;;5.87;;
30472;SDS011;17263;48.160;11.452;2024-01-30T09:38:44;15.03;;;5.97;;
30472;SDS011;17263;48.160;11.452;2024-01-30T09:41:10;9.77;;;5.63;;
30472;SDS011;17263;48.160;11.452;2024-01-30T09:43:37;13.63;;;5.47;;
30472;SDS011;17263;48.160;11.452;2024-01-30T09:46:04;11.43;;;6.20;;
30472;SDS011;17263;48.160;11.452;2024-01-30T09:48:31;9.03;;;5.70;;
30472;SDS011;17263;48.160;11.452;2024-01-30T09:50:59;11.37;;;5.67;;
30472;SDS011;17263;48.160;11.452;2024-01-30T09:53:25;11.10;;;5.37;;
30472;SDS011;17263;48.160;11.452;2024-01-30T09:55:51;10.13;;;5.30;;
30472;SDS011;17263;48.160;11.452;2024-01-30T09:58:17;12.47;;;6.17;;
30472;SDS011;17263;48.160;11.452;2024-01-30T10:00:44;13.03;;;5.73;;
30472;SDS011;17263;48.160;11.452;2024-01-30T10:03:10;11.07;;;5.50;;
30472;SDS011;17263;48.160;11.452;2024-01-30T10:05:36;11.47;;;5.70;;
30472;SDS011;17263;48.160;11.452;2024-01-30T10:08:07;8.97;;;5.37;;
30472;SDS011;17263;48.160;11.452;2024-01-30T10:10:34;8.50;;;5.77;;
30472;SDS011;17263;48.160;11.452;2024-01-30T10:13:01;10.43;;;5.80;;
30472;SDS011;17263;48.160;11.452;2024-01-30T10:15:28;9.83;;;5.77;;
30472;SDS011;17263;48.160;11.452;2024-01-30T10:17:54;11.50;;;5.47;;
30472;SDS011;17263;48.160;11.452;2024-01-30T10:20:20;9.37;;;5.03;;
30472;SDS011;17263;48.160;11.452;2024-01-30T10:22:48;11.30;;;5.07;;
30472;SDS011;17263;48.160;11.452;2024-01-30T10:25:14;6.30;;;4.37;;
30472;SDS011;17263;48.160;11.452;2024-01-30T10:27:41;10.47;;;4.67;;
30472;SDS011;17263;48.160;11.452;2024-01-30T10:30:07;11.67;;;5.60;;
30472;SDS011;17263;48.160;11.452;2024-01-30T10:32:33;14.63;;;5.40;;
30472;SDS011;17263;48.160;11.452;2024-01-30T10:34:59;10.93;;;5.00;;
30472;SDS011;17263;48.160;11.452;2024-01-30T10:37:25;13.03;;;4.53;;
30472;SDS011;17263;48.160;11.452;2024-01-30T10:39:53;9.80;;;4.40;;
30472;SDS011;17263;48.160;11.452;2024-01-30T10:42:23;6.77;;;3.77;;
30472;SDS011;17263;48.160;11.452;2024-01-30T10:45:00;5.97;;;3.50;;
30472;SDS011;17263;48.160;11.452;2024-01-30T10:47:36;6.77;;;3.40;;
30472;SDS011;17263;48.160;11.452;2024-01-30T10:50:03;6.43;;;3.23;;
30472;SDS011;17263;48.160;11.452;2024-01-30T10:52:30;6.37;;;2.70;;
30472;SDS011;17263;48.160;11.452;2024-01-30T10:54:57;9.37;;;2.80;;
30472;SDS011;17263;48.160;11.452;2024-01-30T10:57:27;4.70;;;2.67;;
30472;SDS011;17263;48.160;11.452;2024-01-30T10:59:55;5.57;;;2.93;;
30472;SDS011;17263;48.160;11.452;2024-01-30T11:02:24;3.17;;;2.87;;
30472;SDS011;17263;48.160;11.452;2024-01-30T11:04:54;7.87;;;3.53;;
30472;SDS011;17263;48.160;11.452;2024-01-30T11:07:25;4.67;;;3.23;;
30472;SDS011;17263;48.160;11.452;2024-01-30T11:09:53;6.03;;;3.07;;
30472;SDS011;17263;48.160;11.452;2024-01-30T11:12:26;9.23;;;2.90;;
30472;SDS011;17263;48.160;11.452;2024-01-30T11:17:39;4.63;;;2.90;;
30472;SDS011;17263;48.160;11.452;2024-01-30T11:20:21;4.80;;;2.67;;
30472;SDS011;17263;48.160;11.452;2024-01-30T11:22:47;5.10;;;2.70;;
30472;SDS011;17263;48.160;11.452;2024-01-30T11:25:16;4.20;;;2.63;;
30472;SDS011;17263;48.160;11.452;2024-01-30T11:27:45;4.80;;;2.20;;
30472;SDS011;17263;48.160;11.452;2024-01-30T11:30:24;4.67;;;2.07;;
30472;SDS011;17263;48.160;11.452;2024-01-30T11:33:11;9.27;;;2.20;;
30472;SDS011;17263;48.160;11.452;2024-01-30T11:35:38;4.17;;;2.10;;
30472;SDS011;17263;48.160;11.452;2024-01-30T11:38:05;3.47;;;2.07;;
30472;SDS011;17263;48.160;11.452;2024-01-30T11:40:33;4.17;;;2.60;;
30472;SDS011;17263;48.160;11.452;2024-01-30T11:43:00;6.20;;;2.43;;
30472;SDS011;17263;48.160;11.452;2024-01-30T11:45:27;7.83;;;2.53;;
30472;SDS011;17263;48.160;11.452;2024-01-30T11:47:53;6.20;;;2.40;;
30472;SDS011;17263;48.160;11.452;2024-01-30T11:50:20;5.87;;;2.53;;
30472;SDS011;17263;48.160;11.452;2024-01-30T11:52:47;13.63;;;3.10;;
30472;SDS011;17263;48.160;11.452;2024-01-30T11:55:14;5.10;;;2.33;;
30472;SDS011;17263;48.160;11.452;2024-01-30T11:57:40;6.43;;;2.53;;
30472;SDS011;17263;48.160;11.452;2024-01-30T12:00:13;3.93;;;2.80;;
30472;SDS011;17263;48.160;11.452;2024-01-30T12:02:40;4.03;;;2.60;;
30472;SDS011;17263;48.160;11.452;2024-01-30T12:05:07;3.67;;;2.33;;
30472;SDS011;17263;48.160;11.452;2024-01-30T12:07:34;4.30;;;2.67;;
30472;SDS011;17263;48.160;11.452;2024-01-30T12:10:01;3.00;;;2.40;;
30472;SDS011;17263;48.160;11.452;2024-01-30T12:12:28;2.93;;;2.13;;
30472;SDS011;17263;48.160;11.452;2024-01-30T12:14:55;4.80;;;2.50;;
30472;SDS011;17263;48.160;11.452;2024-01-30T12:17:32;7.90;;;3.00;;
30472;SDS011;17263;48.160;11.452;2024-01-30T12:20:04;7.93;;;2.73;;
30472;SDS011;17263;48.160;11.452;2024-01-30T12:22:40;9.10;;;2.70;;
30472;SDS011;17263;48.160;11.452;2024-01-30T12:25:08;10.70;;;3.43;;
30472;SDS011;17263;48.160;11.452;2024-01-30T12:27:35;3.47;;;2.37;;
30472;SDS011;17263;48.160;11.452;2024-01-30T12:30:08;4.80;;;2.10;;
30472;SDS011;17263;48.160;11.452;2024-01-30T12:32:35;4.20;;;2.03;;
30472;SDS011;17263;48.160;11.452;2024-01-30T12:35:09;2.90;;;1.70;;
30472;SDS011;17263;48.160;11.452;2024-01-30T12:37:40;2.73;;;1.73;;
30472;SDS011;17263;48.160;11.452;2024-01-30T12:40:10;5.07;;;1.97;;
30472;SDS011;17263;48.160;11.452;2024-01-30T12:42:38;4.30;;;2.13;;
30472;SDS011;17263;48.160;11.452;2024-01-30T12:45:05;3.57;;;2.10;;
30472;SDS011;17263;48.160;11.452;2024-01-30T12:47:31;1.73;;;1.40;;
30472;SDS011;17263;48.160;11.452;2024-01-30T12:49:58;2.50;;;1.73;;
30472;SDS011;17263;48.160;11.452;2024-01-30T12:52:24;8.47;;;2.40;;
30472;SDS011;17263;48.160;11.452;2024-01-30T12:54:50;5.27;;;1.97;;
30472;SDS011;17263;48.160;11.452;2024-01-30T12:57:17;2.43;;;1.77;;
30472;SDS011;17263;48.160;11.452;2024-01-30T12:59:43;2.53;;;1.60;;
30472;SDS011;17263;48.160;11.452;2024-01-30T13:02:10;5.57;;;1.83;;
30472;SDS011;17263;48.160;11.452;2024-01-30T13:04:37;7.03;;;2.23;;
30472;SDS011;17263;48.160;11.452;2024-01-30T13:07:04;6.67;;;2.03;;
30472;SDS011;17263;48.160;11.452;2024-01-30T13:09:30;4.13;;;1.70;;
30472;SDS011;17263;48.160;11.452;2024-01-30T13:11:59;2.60;;;1.90;;
30472;SDS011;17263;48.160;11.452;2024-01-30T13:14:28;8.80;;;1.97;;
30472;SDS011;17263;48.160;11.452;2024-01-30T13:16:54;7.03;;;2.00;;
30472;SDS011;17263;48.160;11.452;2024-01-30T13:19:20;5.63;;;2.03;;
30472;SDS011;17263;48.160;11.452;2024-01-30T13:21:46;2.63;;;1.90;;
30472;SDS011;17263;48.160;11.452;2024-01-30T13:24:13;2.40;;;1.60;;
30472;SDS011;17263;48.160;11.452;2024-01-30T13:26:39;8.30;;;2.00;;
30472;SDS011;17263;48.160;11.452;2024-01-30T13:29:07;5.30;;;2.43;;
30472;SDS011;17263;48.160;11.452;2024-01-30T13:31:34;2.23;;;1.80;;
30472;SDS011;17263;48.160;11.452;2024-01-30T13:34:00;3.13;;;1.80;;
30472;SDS011;17263;48.160;11.452;2024-01-30T13:36:26;4.30;;;2.03;;
30472;SDS011;17263;48.160;11.452;2024-01-30T13:38:52;3.40;;;1.80;;
30472;SDS011;17263;48.160;11.452;2024-01-30T13:41:18;7.57;;;2.43;;
30472;SDS011;17263;48.160;11.452;2024-01-30T13:43:44;6.17;;;2.10;;
30472;SDS011;17263;48.160;11.452;2024-01-30T13:46:10;6.03;;;2.33;;
30472;SDS011;17263;48.160;11.452;2024-01-30T13:48:36;5.03;;;2.20;;
30472;SDS011;17263;48.160;11.452;2024-01-30T13:51:02;5.57;;;2.00;;
30472;SDS011;17263;48.160;11.452;2024-01-30T13:53:28;10.60;;;3.23;;
30472;SDS011;17263;48.160;11.452;2024-01-30T13:55:54;11.07;;;3.83;;
30472;SDS011;17263;48.160;11.452;2024-01-30T13:58:20;7.43;;;4.00;;
30472;SDS011;17263;48.160;11.452;2024-01-30T14:00:46;8.13;;;3.60;;
30472;SDS011;17263;48.160;11.452;2024-01-30T14:03:12;10.53;;;4.47;;
30472;SDS011;17263;48.160;11.452;2024-01-30T14:05:38;8.33;;;3.50;;
30472;SDS011;17263;48.160;11.452;2024-01-30T14:08:05;8.37;;;4.10;;
30472;SDS011;17263;48.160;11.452;2024-01-30T14:10:33;9.93;;;3.60;;
30472;SDS011;17263;48.160;11.452;2024-01-30T14:12:59;9.00;;;3.83;;
30472;SDS011;17263;48.160;11.452;2024-01-30T14:15:25;8.20;;;3.43;;
30472;SDS011;17263;48.160;11.452;2024-01-30T14:17:51;11.13;;;3.87;;
30472;SDS011;17263;48.160;11.452;2024-01-30T14:20:18;5.17;;;3.20;;
30472;SDS011;17263;48.160;11.452;2024-01-30T14:22:44;4.90;;;3.23;;
30472;SDS011;17263;48.160;11.452;2024-01-30T14:25:11;6.00;;;3.10;;
30472;SDS011;17263;48.160;11.452;2024-01-30T14:27:37;5.40;;;3.33;;